Historique des mesures à Cassis (13260), France
Quotidien Résumé Juin 26, 2018 Unités:  Métrique    US   Métrique/US
« Précédent (Jour)
Suivant (Jour) »
Quotidien Hebdomadaire Mensuel Annuel Période au choix
  Maximum: Minimum: Moyenne:
Température: TemperatureC °C 20.1 °C 23.7 °C
Point de rosée: DewpointC °C 13.1 °C 15.8 °C
Humidité: Humidity % 47 % 59 %
Vitesse du vent: 0 km/h 0 km/h 3.5 km/h
Rafales: 0 km/h - -
Vent:- - SW
Pression: PressurehPa hPa 1012.5 hPa -
Précipitations: 0.0 mm    
Historical Graphs
 
 
Mesures pour : Juin 26, 2018
Heure Temperature Point de rosée Pression Vent Vitesse du vent Rafales Humidité Pluie (par heure) Conditions
TemperatureC °C DewpointC °C PressurehPa hPa Calm     Humidity % HourlyPrecipMM mm SoftwareType W/m2
00:10 21.6 °C 15.2 °C 1013.4 hPa NNW 1.8 km/h 1.8 km/h 67 % 0.0 mm open2300-1.11 W/m2
01:10 21.8 °C 15.6 °C 1013.4 hPa Calm     68 % 0.0 mm open2300-1.11 W/m2
02:10 21.4 °C 15.2 °C 1013.3 hPa Calm     68 % 0.0 mm open2300-1.11 W/m2
03:10 20.8 °C 15.1 °C 1013.2 hPa Calm     70 % 0.0 mm open2300-1.11 W/m2
04:11 20.4 °C 15.4 °C 1013.0 hPa WNW 4.2 km/h 4.2 km/h 73 % 0.0 mm open2300-1.11 W/m2
05:10 20.3 °C 15.5 °C 1012.8 hPa NW 4.2 km/h 4.2 km/h 74 % 0.0 mm open2300-1.11 W/m2
06:10 20.2 °C 15.2 °C 1013.0 hPa Calm   1.8 km/h 73 % 0.0 mm open2300-1.11 W/m2
07:10 20.1 °C 14.9 °C 1013.5 hPa Calm   2.3 km/h 72 % 0.0 mm open2300-1.11 W/m2
08:10 22.9 °C 16.7 °C 1013.8 hPa Calm     68 % 0.0 mm open2300-1.11 W/m2
09:10 23.1 °C 16.1 °C 1013.8 hPa ESE 6.4 km/h 6.4 km/h 65 % 0.0 mm open2300-1.11 W/m2
10:10 25.2 °C 18.2 °C 1014.0 hPa SSE 12.2 km/h 12.2 km/h 65 % 0.0 mm open2300-1.11 W/m2
11:10 28.5 °C 18.8 °C 1014.2 hPa SSE 6.4 km/h 6.4 km/h 56 % 0.0 mm open2300-1.11 W/m2
12:10 29.3 °C 19.0 °C 1014.5 hPa ESE 4.2 km/h 4.2 km/h 54 % 0.0 mm open2300-1.11 W/m2
13:10 29.3 °C 19.6 °C 1014.3 hPa South 12.2 km/h 12.2 km/h 56 % 0.0 mm open2300-1.11 W/m2
14:10 29.6 °C 19.6 °C 1014.1 hPa Calm   14.5 km/h 55 % 0.0 mm open2300-1.11 W/m2
15:10 29.5 °C 19.2 °C 1013.5 hPa ENE 5.1 km/h 9.3 km/h 54 % 0.0 mm open2300-1.11 W/m2
16:10 29.0 °C 19.1 °C 1013.6 hPa West 5.6 km/h 15 km/h 55 % 0.0 mm open2300-1.11 W/m2
17:10 28.4 °C 18.2 °C 1013.4 hPa WNW 9.3 km/h 9.3 km/h 54 % 0.0 mm open2300-1.11 W/m2
18:10 28.1 °C 16.3 °C 1012.8 hPa SW 5.1 km/h 5.6 km/h 49 % 0.0 mm open2300-1.11 W/m2
19:10 27.5 °C 15.1 °C 1012.7 hPa SW 3.4 km/h 5.6 km/h 47 % 0.0 mm open2300-1.11 W/m2
20:10 26.2 °C 14.3 °C 1012.5 hPa WNW 5.6 km/h 5.6 km/h 48 % 0.0 mm open2300-1.11 W/m2
21:10 24.9 °C 15.2 °C 1012.7 hPa Calm     55 % 0.0 mm open2300-1.11 W/m2
22:10 23.3 °C 13.1 °C 1013.2 hPa NW 2.3 km/h 2.3 km/h 53 % 0.0 mm open2300-1.11 W/m2
23:10 22.1 °C 14.7 °C 1013.4 hPa Calm     63 % 0.0 mm open2300-1.11 W/m2
Observations météo à CASSIS
WU-History script by Weather Underground - 1 mb